createdAt,value
2018-11-25T00:00:41.469Z,9.01
2018-11-25T00:03:11.012Z,9.02
2018-11-25T00:05:40.531Z,9.01
2018-11-25T00:08:10.111Z,9.02
2018-11-25T00:10:39.582Z,9.02
2018-11-25T00:13:09.099Z,9.01
2018-11-25T00:15:38.571Z,8.98
2018-11-25T00:18:08.079Z,8.97
2018-11-25T00:20:37.585Z,8.94
2018-11-25T00:23:07.111Z,8.94
2018-11-25T00:25:36.648Z,8.93
2018-11-25T00:28:06.369Z,8.94
2018-11-25T00:30:35.882Z,8.93
2018-11-25T00:33:05.596Z,8.96
2018-11-25T00:35:35.109Z,8.96
2018-11-25T00:38:04.680Z,8.96
2018-11-25T00:40:34.196Z,8.96
2018-11-25T00:43:03.782Z,8.97
2018-11-25T00:45:33.271Z,8.94
2018-11-25T00:48:02.814Z,8.92
2018-11-25T00:50:32.348Z,8.93
2018-11-25T00:53:01.872Z,8.94
2018-11-25T00:55:31.350Z,8.94
2018-11-25T00:58:00.859Z,8.93
2018-11-25T01:00:30.352Z,8.91
2018-11-25T01:02:59.911Z,8.91
2018-11-25T01:05:29.415Z,8.89
2018-11-25T01:07:58.947Z,8.89
2018-11-25T01:10:28.443Z,8.91
2018-11-25T01:12:57.951Z,8.88
2018-11-25T01:15:27.536Z,8.88
2018-11-25T01:17:57.040Z,8.88
2018-11-25T01:20:26.548Z,8.85
2018-11-25T01:22:56.080Z,8.84
2018-11-25T01:25:25.617Z,8.83
2018-11-25T01:27:55.091Z,8.80
2018-11-25T01:30:24.615Z,8.81
2018-11-25T01:32:54.119Z,8.81
2018-11-25T01:35:23.639Z,8.81
2018-11-25T01:37:53.143Z,8.81
2018-11-25T01:40:22.669Z,8.83
2018-11-25T01:42:52.151Z,8.84
2018-11-25T01:45:21.661Z,8.86
2018-11-25T01:47:51.183Z,8.88
2018-11-25T01:50:20.732Z,8.88
2018-11-25T01:52:50.204Z,8.90
2018-11-25T01:55:20.000Z,8.89
2018-11-25T01:57:49.491Z,8.89
2018-11-25T02:00:20.064Z,8.90
2018-11-25T02:02:49.759Z,8.90
2018-11-25T02:05:19.379Z,8.89
2018-11-25T02:07:48.882Z,8.88
2018-11-25T02:10:19.275Z,8.88
2018-11-25T02:12:48.776Z,8.88
2018-11-25T02:15:18.535Z,8.87
2018-11-25T02:17:48.046Z,8.87
2018-11-25T02:20:24.874Z,8.88
2018-11-25T02:22:56.843Z,8.85
2018-11-25T02:25:26.330Z,8.84
2018-11-25T02:27:55.855Z,8.84
2018-11-25T02:30:25.371Z,8.84
2018-11-25T02:32:54.915Z,8.84
2018-11-25T02:35:24.409Z,8.84
2018-11-25T02:37:53.932Z,8.82
2018-11-25T02:40:23.412Z,8.81
2018-11-25T02:42:52.943Z,8.80
2018-11-25T02:45:22.486Z,8.82
2018-11-25T02:47:51.980Z,8.83
2018-11-25T02:50:27.543Z,8.82
2018-11-25T02:53:02.031Z,8.83
2018-11-25T02:55:31.597Z,8.82
2018-11-25T02:58:01.076Z,8.85
2018-11-25T03:00:30.628Z,8.84
2018-11-25T03:03:00.173Z,8.84
2018-11-25T03:05:29.808Z,8.86
2018-11-25T03:07:59.348Z,8.84
2018-11-25T03:10:28.919Z,8.82
2018-11-25T03:12:58.399Z,8.81
2018-11-25T03:15:27.930Z,8.80
2018-11-25T03:17:57.447Z,8.79
2018-11-25T03:20:26.968Z,8.78
2018-11-25T03:22:56.463Z,8.76
2018-11-25T03:25:26.007Z,8.75
2018-11-25T03:27:55.539Z,8.75
2018-11-25T03:30:25.078Z,8.75
2018-11-25T03:32:54.828Z,8.76
2018-11-25T03:35:24.389Z,8.72
2018-11-25T03:37:53.891Z,8.71
2018-11-25T03:40:23.472Z,8.72
2018-11-25T03:42:52.943Z,8.73
2018-11-25T03:45:22.944Z,8.74
2018-11-25T03:47:52.428Z,8.76
2018-11-25T03:50:21.959Z,8.77
2018-11-25T03:52:51.480Z,8.77
2018-11-25T03:55:21.014Z,8.78
2018-11-25T03:57:50.531Z,8.79
2018-11-25T04:00:23.600Z,8.80
2018-11-25T04:02:54.903Z,8.81
2018-11-25T04:05:24.447Z,8.80
2018-11-25T04:07:53.943Z,8.80
2018-11-25T04:10:23.471Z,8.83
2018-11-25T04:12:52.967Z,8.81
2018-11-25T04:15:22.501Z,8.80
2018-11-25T04:17:52.052Z,8.79
2018-11-25T04:20:21.916Z,8.77
2018-11-25T04:22:51.540Z,8.78
2018-11-25T04:25:21.095Z,8.75
2018-11-25T04:27:50.640Z,8.75
2018-11-25T04:30:20.657Z,8.76
2018-11-25T04:32:51.035Z,8.76
2018-11-25T04:35:20.527Z,8.76
2018-11-25T04:37:50.063Z,8.77
2018-11-25T04:40:19.767Z,8.77
2018-11-25T04:42:49.350Z,8.78
2018-11-25T04:45:18.821Z,8.79
2018-11-25T04:47:48.491Z,8.78
2018-11-25T04:50:18.951Z,8.79
2018-11-25T04:52:48.619Z,8.78
2018-11-25T04:55:18.190Z,8.79
2018-11-25T04:57:49.681Z,8.79
2018-11-25T05:00:19.546Z,8.79
2018-11-25T05:02:49.654Z,8.79
2018-11-25T05:05:19.291Z,8.80
2018-11-25T05:07:48.804Z,8.80
2018-11-25T05:10:18.896Z,8.81
2018-11-25T05:12:48.410Z,8.81
2018-11-25T05:15:19.796Z,8.82
2018-11-25T05:17:49.398Z,8.81
2018-11-25T05:20:19.463Z,8.81
2018-11-25T05:22:49.048Z,8.80
2018-11-25T05:25:19.263Z,8.79
2018-11-25T05:27:48.899Z,8.78
2018-11-25T05:30:20.320Z,8.77
2018-11-25T05:32:49.902Z,8.78
2018-11-25T05:35:20.384Z,8.77
2018-11-25T05:37:49.934Z,8.79
2018-11-25T05:40:19.471Z,8.79
2018-11-25T05:42:49.061Z,8.77
2018-11-25T05:45:19.602Z,8.77
2018-11-25T05:47:49.183Z,8.77
2018-11-25T05:50:19.450Z,8.76
2018-11-25T05:52:48.944Z,8.78
2018-11-25T05:55:18.423Z,8.80
2018-11-25T05:57:47.960Z,8.83
2018-11-25T06:00:26.542Z,8.85
2018-11-25T06:02:56.028Z,8.84
2018-11-25T06:05:25.567Z,8.86
2018-11-25T06:07:55.044Z,8.87
2018-11-25T06:10:24.765Z,8.87
2018-11-25T06:12:54.282Z,8.89
2018-11-25T06:15:23.803Z,8.90
2018-11-25T06:17:53.277Z,8.91
2018-11-25T06:20:22.783Z,8.92
2018-11-25T06:22:52.261Z,8.93
2018-11-25T06:25:22.220Z,8.94
2018-11-25T06:27:51.905Z,8.96
2018-11-25T06:30:21.739Z,8.95
2018-11-25T06:32:51.217Z,8.97
2018-11-25T06:35:21.009Z,8.97
2018-11-25T06:37:50.497Z,8.99
2018-11-25T06:40:20.740Z,9.00
2018-11-25T06:42:50.263Z,9.01
2018-11-25T06:45:22.941Z,9.02
2018-11-25T06:47:52.664Z,9.05
2018-11-25T06:50:22.248Z,9.09
2018-11-25T06:52:51.757Z,9.14
2018-11-25T06:55:21.299Z,9.18
2018-11-25T06:57:50.842Z,9.24
2018-11-25T07:00:25.150Z,9.28
2018-11-25T07:02:54.787Z,9.33
2018-11-25T07:05:24.297Z,9.38
2018-11-25T07:07:53.838Z,9.41
2018-11-25T07:10:23.729Z,9.45
2018-11-25T07:12:54.235Z,9.50
2018-11-25T07:15:23.741Z,9.54
2018-11-25T07:17:53.279Z,9.58
2018-11-25T07:20:22.923Z,9.63
2018-11-25T07:22:52.470Z,9.66
2018-11-25T07:25:23.590Z,9.68
2018-11-25T07:27:53.283Z,9.66
2018-11-25T07:30:24.788Z,9.66
2018-11-25T07:32:54.448Z,9.69
2018-11-25T07:35:24.834Z,9.68
2018-11-25T07:37:54.401Z,9.72
2018-11-25T07:40:24.642Z,9.74
2018-11-25T07:42:54.189Z,9.78
2018-11-25T07:45:30.138Z,9.83
2018-11-25T07:47:54.354Z,9.88
2018-11-25T07:50:23.892Z,9.92
2018-11-25T07:52:53.448Z,9.96
2018-11-25T07:55:24.032Z,9.97
2018-11-25T07:57:54.447Z,10.00
2018-11-25T08:00:25.018Z,10.08
2018-11-25T08:02:54.597Z,10.14
2018-11-25T08:05:26.943Z,10.24
2018-11-25T08:07:56.530Z,10.33
2018-11-25T08:10:26.033Z,10.41
2018-11-25T08:12:56.531Z,10.44
2018-11-25T08:15:25.112Z,10.49
2018-11-25T08:17:54.645Z,10.59
2018-11-25T08:20:24.158Z,10.65
2018-11-25T08:22:53.654Z,10.72
2018-11-25T08:25:23.274Z,10.78
2018-11-25T08:27:52.871Z,10.75
2018-11-25T08:30:23.269Z,10.75
2018-11-25T08:32:53.023Z,10.80
2018-11-25T08:35:22.664Z,10.84
2018-11-25T08:37:52.207Z,10.88
2018-11-25T08:40:23.695Z,10.94
2018-11-25T08:42:53.562Z,10.96
2018-11-25T08:45:23.143Z,10.94
2018-11-25T08:47:52.638Z,10.96
2018-11-25T08:50:22.180Z,10.98
2018-11-25T08:52:52.769Z,10.97
2018-11-25T08:55:23.261Z,10.92
2018-11-25T08:57:52.971Z,10.87
2018-11-25T09:00:23.448Z,10.89
2018-11-25T09:02:53.900Z,10.93
2018-11-25T09:05:23.442Z,11.01
2018-11-25T09:07:53.937Z,11.12
2018-11-25T09:10:23.655Z,11.23
2018-11-25T09:12:56.043Z,11.21
2018-11-25T09:15:31.916Z,11.24
2018-11-25T09:18:01.451Z,11.24
2018-11-25T09:20:30.932Z,11.22
2018-11-25T09:23:00.483Z,11.24
2018-11-25T09:25:32.105Z,11.25
2018-11-25T09:28:02.678Z,11.22
2018-11-25T09:30:33.049Z,11.17
2018-11-25T09:33:02.581Z,11.15
2018-11-25T09:35:32.137Z,11.17
2018-11-25T09:38:01.632Z,11.16
2018-11-25T09:40:31.184Z,11.17
2018-11-25T09:43:00.662Z,11.12
2018-11-25T09:45:30.191Z,11.07
2018-11-25T09:47:59.758Z,11.08
2018-11-25T09:50:29.306Z,11.09
2018-11-25T09:52:58.857Z,11.07
2018-11-25T09:55:28.356Z,11.04
2018-11-25T09:57:59.952Z,11.05
2018-11-25T10:00:31.665Z,11.11
2018-11-25T10:03:01.235Z,11.20
2018-11-25T10:05:30.755Z,11.26
2018-11-25T10:08:00.379Z,11.29
2018-11-25T10:10:29.911Z,11.34
2018-11-25T10:12:59.446Z,11.42
2018-11-25T10:15:29.717Z,11.44
2018-11-25T10:18:00.172Z,11.50
2018-11-25T10:20:30.825Z,11.65
2018-11-25T10:23:00.492Z,11.73
2018-11-25T10:25:30.046Z,11.72
2018-11-25T10:27:59.583Z,11.88
2018-11-25T10:30:29.980Z,11.94
2018-11-25T10:33:00.850Z,11.99
2018-11-25T10:35:30.334Z,12.00
2018-11-25T10:37:59.882Z,12.01
2018-11-25T10:40:29.452Z,12.05
2018-11-25T10:42:58.987Z,12.09
2018-11-25T10:45:29.172Z,12.13
2018-11-25T10:47:59.096Z,12.19
2018-11-25T10:50:28.686Z,12.23
2018-11-25T10:52:58.209Z,12.27
2018-11-25T10:55:27.719Z,12.29
2018-11-25T10:57:57.271Z,12.29
2018-11-25T11:00:37.038Z,12.29
2018-11-25T11:03:12.890Z,12.28
2018-11-25T11:05:47.519Z,12.27
2018-11-25T11:08:17.091Z,12.19
2018-11-25T11:10:46.570Z,12.18
2018-11-25T11:13:16.091Z,12.13
2018-11-25T11:15:45.599Z,12.13
2018-11-25T11:18:15.089Z,12.11
2018-11-25T11:20:44.676Z,12.08
2018-11-25T11:23:14.211Z,12.02
2018-11-25T11:25:43.686Z,11.97
2018-11-25T11:28:13.271Z,11.92
2018-11-25T11:30:42.816Z,11.86
2018-11-25T11:33:12.342Z,11.77
2018-11-25T11:35:41.923Z,11.72
2018-11-25T11:38:11.406Z,11.68
2018-11-25T11:40:40.950Z,11.60
2018-11-25T11:43:10.423Z,11.56
2018-11-25T11:45:39.923Z,11.49
2018-11-25T11:48:09.435Z,11.45
2018-11-25T11:50:38.935Z,11.40
2018-11-25T11:53:08.463Z,11.38
2018-11-25T11:55:37.939Z,11.34
2018-11-25T11:58:07.527Z,11.32
2018-11-25T12:00:37.048Z,11.30
2018-11-25T12:03:06.744Z,11.31
2018-11-25T12:05:36.272Z,11.32
2018-11-25T12:08:06.111Z,11.32
2018-11-25T12:10:35.619Z,11.35
2018-11-25T12:13:05.771Z,11.37
2018-11-25T12:15:35.288Z,11.37
2018-11-25T12:18:04.911Z,11.37
2018-11-25T12:20:34.396Z,11.40
2018-11-25T12:23:03.919Z,11.40
2018-11-25T12:25:33.479Z,11.38
2018-11-25T12:28:03.005Z,11.37
2018-11-25T12:30:32.532Z,11.40
2018-11-25T12:33:02.063Z,11.40
2018-11-25T12:35:31.551Z,11.39
2018-11-25T12:38:01.187Z,11.42
2018-11-25T12:40:30.669Z,10.57
2018-11-25T12:43:00.235Z,11.46
2018-11-25T12:45:29.724Z,11.47
2018-11-25T12:47:59.260Z,11.47
2018-11-25T12:50:28.747Z,11.46
2018-11-25T12:52:59.557Z,11.45
2018-11-25T12:55:28.219Z,11.45
2018-11-25T12:57:58.235Z,11.49
2018-11-25T13:00:41.414Z,11.52
2018-11-25T13:03:12.124Z,11.56
2018-11-25T13:05:45.979Z,11.59
2018-11-25T13:08:12.194Z,11.60
2018-11-25T13:10:41.815Z,11.61
2018-11-25T13:13:12.063Z,11.61
2018-11-25T13:15:41.624Z,11.58
2018-11-25T13:18:11.260Z,11.57
2018-11-25T13:20:40.780Z,11.53
2018-11-25T13:23:10.311Z,11.49
2018-11-25T13:25:39.804Z,11.46
2018-11-25T13:28:09.333Z,11.45
2018-11-25T13:30:38.823Z,11.45
2018-11-25T13:33:08.527Z,11.42
2018-11-25T13:35:39.327Z,11.36
2018-11-25T13:38:08.979Z,11.36
2018-11-25T13:40:38.459Z,11.35
2018-11-25T13:43:08.265Z,11.31
2018-11-25T13:45:37.743Z,11.30
2018-11-25T13:48:07.599Z,11.29
2018-11-25T13:50:37.197Z,11.26
2018-11-25T13:53:07.013Z,11.24
2018-11-25T13:55:36.483Z,11.21
2018-11-25T13:58:06.288Z,11.16
2018-11-25T14:00:44.300Z,11.13
2018-11-25T14:03:16.807Z,11.10
2018-11-25T14:05:53.185Z,11.05
2018-11-25T14:08:15.868Z,11.01
2018-11-25T14:10:45.431Z,10.95
2018-11-25T14:13:14.910Z,10.92
2018-11-25T14:15:44.433Z,10.86
2018-11-25T14:18:13.907Z,10.80
2018-11-25T14:20:43.441Z,10.76
2018-11-25T14:23:12.961Z,10.69
2018-11-25T14:25:42.480Z,10.63
2018-11-25T14:28:13.279Z,10.58
2018-11-25T14:30:42.787Z,10.50
2018-11-25T14:33:12.271Z,10.43
2018-11-25T14:35:41.748Z,10.38
2018-11-25T14:38:11.296Z,10.31
2018-11-25T14:40:40.823Z,10.24
2018-11-25T14:43:10.304Z,10.16
2018-11-25T14:45:46.134Z,10.11
2018-11-25T14:48:15.619Z,10.04
2018-11-25T14:50:45.133Z,9.98
2018-11-25T14:53:14.662Z,9.93
2018-11-25T14:55:44.168Z,9.86
2018-11-25T14:58:13.679Z,9.80
2018-11-25T15:00:43.156Z,9.73
2018-11-25T15:03:12.680Z,9.67
2018-11-25T15:05:46.394Z,9.60
2018-11-25T15:08:21.375Z,9.53
2018-11-25T15:10:50.876Z,9.48
2018-11-25T15:13:20.429Z,9.41
2018-11-25T15:15:50.047Z,9.35
2018-11-25T15:18:19.600Z,9.31
2018-11-25T15:20:49.091Z,9.25
2018-11-25T15:23:18.648Z,9.20
2018-11-25T15:25:52.682Z,9.16
2018-11-25T15:28:22.196Z,9.12
2018-11-25T15:30:51.737Z,9.08
2018-11-25T15:33:21.254Z,9.03
2018-11-25T15:35:50.768Z,8.99
2018-11-25T15:38:20.251Z,8.95
2018-11-25T15:40:49.818Z,8.94
2018-11-25T15:43:19.278Z,8.92
2018-11-25T15:45:48.846Z,8.89
2018-11-25T15:48:20.966Z,8.92
2018-11-25T15:50:50.612Z,8.93
2018-11-25T15:53:20.089Z,8.96
2018-11-25T15:55:51.161Z,8.98
2018-11-25T15:58:20.648Z,9.01
2018-11-25T16:00:50.220Z,9.04
2018-11-25T16:03:19.730Z,9.07
2018-11-25T16:05:52.493Z,9.09
2018-11-25T16:08:21.987Z,9.12
2018-11-25T16:10:51.521Z,9.16
2018-11-25T16:13:22.543Z,9.19
2018-11-25T16:15:50.601Z,9.19
2018-11-25T16:18:20.136Z,9.08
2018-11-25T16:20:49.658Z,9.10
2018-11-25T16:23:19.135Z,9.09
2018-11-25T16:25:52.213Z,9.06
2018-11-25T16:28:26.164Z,9.09
2018-11-25T16:30:55.688Z,9.13
2018-11-25T16:33:25.199Z,9.12
2018-11-25T16:35:54.703Z,9.19
2018-11-25T16:38:24.214Z,9.25
2018-11-25T16:40:53.749Z,9.32
2018-11-25T16:43:23.297Z,9.31
2018-11-25T16:45:52.827Z,9.37
2018-11-25T16:48:22.376Z,9.41
2018-11-25T16:50:51.936Z,9.39
2018-11-25T16:53:21.500Z,9.40
2018-11-25T16:55:50.995Z,9.44
2018-11-25T16:58:20.584Z,9.43
2018-11-25T17:00:50.080Z,9.45
2018-11-25T17:03:19.616Z,9.47
2018-11-25T17:05:50.872Z,9.49
2018-11-25T17:08:32.239Z,9.52
2018-11-25T17:11:02.123Z,9.52
2018-11-25T17:13:31.819Z,9.53
2018-11-25T17:16:01.358Z,9.57
2018-11-25T17:18:30.836Z,9.57
2018-11-25T17:21:00.398Z,9.57
2018-11-25T17:23:29.947Z,9.60
2018-11-25T17:25:59.418Z,9.62
2018-11-25T17:28:28.919Z,9.63
2018-11-25T17:30:58.432Z,9.63
2018-11-25T17:33:28.012Z,9.63
2018-11-25T17:35:57.492Z,9.65
2018-11-25T17:38:27.008Z,9.67
2018-11-25T17:40:56.516Z,9.68
2018-11-25T17:43:26.209Z,9.70
2018-11-25T17:45:55.781Z,9.69
2018-11-25T17:48:25.307Z,9.70
2018-11-25T17:50:54.812Z,9.70
2018-11-25T17:53:24.278Z,9.70
2018-11-25T17:55:53.792Z,9.68
2018-11-25T17:58:23.331Z,9.70
2018-11-25T18:00:59.873Z,9.71
2018-11-25T18:03:30.692Z,9.71
2018-11-25T18:06:00.259Z,9.70
2018-11-25T18:08:29.779Z,9.71
2018-11-25T18:10:59.341Z,9.67
2018-11-25T18:13:30.362Z,9.68
2018-11-25T18:16:01.276Z,9.67
2018-11-25T18:18:36.326Z,9.69
2018-11-25T18:21:08.067Z,9.69
2018-11-25T18:23:37.579Z,9.68
2018-11-25T18:26:07.227Z,9.70
2018-11-25T18:28:36.733Z,9.68
2018-11-25T18:31:07.555Z,9.69
2018-11-25T18:33:37.076Z,9.68
2018-11-25T18:36:07.359Z,9.67
2018-11-25T18:38:36.827Z,9.66
2018-11-25T18:41:06.620Z,9.65
2018-11-25T18:43:36.143Z,9.65
2018-11-25T18:46:05.983Z,9.64
2018-11-25T18:48:36.831Z,9.63
2018-11-25T18:51:06.400Z,9.63
2018-11-25T18:53:35.947Z,9.63
2018-11-25T18:56:05.753Z,9.62
2018-11-25T18:58:35.271Z,9.62
2018-11-25T19:02:12.562Z,9.62
2018-11-25T19:04:42.109Z,9.62
2018-11-25T19:07:11.583Z,9.62
2018-11-25T19:09:41.205Z,9.60
2018-11-25T19:12:10.724Z,9.59
2018-11-25T19:14:40.234Z,9.59
2018-11-25T19:17:09.736Z,9.59
2018-11-25T19:19:39.318Z,9.56
2018-11-25T19:22:08.788Z,9.56
2018-11-25T19:24:38.311Z,9.57
2018-11-25T19:27:07.855Z,9.57
2018-11-25T19:29:37.373Z,9.57
2018-11-25T19:32:07.318Z,9.55
2018-11-25T19:34:36.827Z,9.53
2018-11-25T19:37:06.384Z,9.53
2018-11-25T19:39:35.924Z,9.00
2018-11-25T19:42:05.727Z,9.54
2018-11-25T19:44:35.240Z,9.53
2018-11-25T19:47:04.768Z,9.54
2018-11-25T19:49:34.256Z,9.55
2018-11-25T19:52:03.780Z,9.55
2018-11-25T19:54:33.236Z,9.55
2018-11-25T19:57:02.735Z,9.57
2018-11-25T19:59:32.215Z,9.54
2018-11-25T20:02:01.721Z,9.54
2018-11-25T20:04:31.260Z,9.55
2018-11-25T20:07:00.728Z,9.54
2018-11-25T20:09:31.367Z,9.54
2018-11-25T20:12:00.895Z,9.55
2018-11-25T20:14:30.424Z,9.54
2018-11-25T20:17:04.887Z,9.53
2018-11-25T20:19:34.403Z,9.53
2018-11-25T20:22:08.918Z,9.52
2018-11-25T20:24:38.404Z,9.50
2018-11-25T20:27:13.025Z,9.49
2018-11-25T20:29:42.600Z,9.49
2018-11-25T20:32:17.071Z,9.48
2018-11-25T20:34:46.571Z,9.48
2018-11-25T20:37:16.129Z,9.49
2018-11-25T20:39:45.640Z,9.49
2018-11-25T20:42:15.127Z,9.50
2018-11-25T20:44:44.630Z,9.48
2018-11-25T20:47:14.167Z,9.47
2018-11-25T20:49:43.791Z,9.44
2018-11-25T20:52:18.355Z,9.44
2018-11-25T20:54:47.863Z,9.41
2018-11-25T20:57:17.395Z,9.42
2018-11-25T20:59:46.896Z,8.51
2018-11-25T21:02:20.435Z,9.38
2018-11-25T21:04:45.903Z,9.39
2018-11-25T21:07:15.363Z,9.40
2018-11-25T21:09:44.944Z,9.39
2018-11-25T21:12:14.407Z,9.40
2018-11-25T21:14:43.975Z,9.41
2018-11-25T21:17:13.439Z,9.40
2018-11-25T21:19:42.927Z,9.33
2018-11-25T21:22:12.439Z,9.37
2018-11-25T21:24:41.938Z,9.39
2018-11-25T21:27:11.448Z,9.40
2018-11-25T21:29:40.960Z,9.41
2018-11-25T21:32:10.428Z,9.42
2018-11-25T21:34:39.927Z,9.42
2018-11-25T21:37:09.427Z,9.45
2018-11-25T21:39:38.907Z,9.47
2018-11-25T21:42:09.215Z,9.47
2018-11-25T21:44:38.775Z,9.49
2018-11-25T21:47:08.292Z,9.49
2018-11-25T21:49:37.824Z,9.49
2018-11-25T21:52:07.423Z,9.48
2018-11-25T21:54:36.936Z,9.46
2018-11-25T21:57:06.779Z,9.45
2018-11-25T21:59:36.257Z,9.42
2018-11-25T22:02:06.347Z,9.42
2018-11-25T22:04:35.847Z,9.41
2018-11-25T22:07:05.379Z,9.42
2018-11-25T22:09:34.944Z,9.43
2018-11-25T22:12:04.527Z,9.42
2018-11-25T22:14:34.049Z,9.43
2018-11-25T22:17:03.563Z,9.43
2018-11-25T22:19:33.028Z,9.41
2018-11-25T22:22:02.557Z,9.41
2018-11-25T22:24:32.047Z,9.42
2018-11-25T22:27:01.555Z,9.43
2018-11-25T22:29:31.064Z,9.40
2018-11-25T22:32:00.548Z,9.40
2018-11-25T22:34:30.089Z,9.25
2018-11-25T22:36:59.629Z,9.29
2018-11-25T22:39:29.107Z,9.29
2018-11-25T22:41:58.665Z,9.14
2018-11-25T22:44:28.127Z,9.19
2018-11-25T22:46:57.650Z,9.19
2018-11-25T22:49:27.127Z,9.16
2018-11-25T22:51:56.655Z,9.18
2018-11-25T22:54:26.150Z,9.13
2018-11-25T22:56:55.701Z,9.11
2018-11-25T22:59:25.161Z,9.14
2018-11-25T23:01:54.669Z,9.18
2018-11-25T23:04:35.117Z,9.20
2018-11-25T23:07:04.950Z,9.23
2018-11-25T23:09:34.479Z,9.17
2018-11-25T23:12:04.026Z,9.19
2018-11-25T23:14:33.502Z,9.22
2018-11-25T23:17:03.024Z,9.24
2018-11-25T23:19:32.555Z,9.23
2018-11-25T23:22:02.063Z,9.22
2018-11-25T23:24:31.528Z,9.24
2018-11-25T23:27:01.043Z,9.26
2018-11-25T23:29:30.531Z,9.28
2018-11-25T23:32:00.058Z,9.28
2018-11-25T23:34:29.544Z,9.28
2018-11-25T23:36:59.108Z,9.27
2018-11-25T23:39:28.587Z,9.28
2018-11-25T23:41:58.132Z,9.30
2018-11-25T23:44:27.623Z,9.31
2018-11-25T23:46:57.115Z,9.33
2018-11-25T23:49:26.587Z,9.34
2018-11-25T23:51:56.143Z,9.37
2018-11-25T23:54:25.624Z,9.39
2018-11-25T23:56:55.131Z,9.39
2018-11-25T23:59:24.591Z,9.38
